logo
App data

SquareCells

SquareCells is an ambient logic puzzle game.
Store | Hub | SteamDB
Developer: Matthew Brown Publisher: Matthew Brown
Genre: Casual, Indie
Languages: English
Tags: Puzzle (41), Indie (37), Casual (31), Minimalist (17), Logic (7), Singleplayer (5)
Category: Single-player, Steam Achievements, Steam Cloud
Release date: Dec 7, 2015
Price: $0.89 70%
Old userscore: 92% Owners: 50,000 .. 100,000
Followers: 947
Peak concurrent players yesterday: 7
Playtime total: 03:08 (average) 05:22 (median)

Steam Spy is still in beta, so expect major bugs.

Owners data:

Access restricted.

This feature is only available to users with special access rights. Sorry.

If you want to proceed, you need to register or log in first and then back Steam Spy on Patreon. Look for Indie or Pro pledge.

Don't forget to use the same email as on Steam Spy!

Audience in 2 weeks:

Access restricted.

This feature is only available to users with special access rights. Sorry.

If you want to proceed, you need to register or log in first and then back Steam Spy on Patreon. Look for Indie or Pro pledge.

Don't forget to use the same email as on Steam Spy!

Peak daily concurrent players:

CCU data courtesy of SteamDB. Used with permission.

Hourly concurrent players:

Daily Twitch stats:

Hourly Twitch stats:

Followers over time

Access restricted.

This feature is only available to users with special access rights. Sorry.

If you want to proceed, you need to register or log in first and then back Steam Spy on Patreon. Look for Indie or Pro pledge.

Don't forget to use the same email as on Steam Spy!

Views for top 50 videos on YouTube for this game:

Games similar to this one:

# Game Release date
Price
Score rank
(Userscore / Metascore)
Owners
Players
Playtime (Median)
1 Swapperoo Dec 18, 2015 $4.99N/A (N/A)0 .. 20,0000%00:00 (00:00)
2 The Deletion Jul 30, 2015 $0.59N/A (N/A)20,000 .. 50,0000%00:00 (00:00)
3 Goodnight Butcher Dec 18, 2015 $1.99N/A (N/A)20,000 .. 50,0000%00:00 (00:00)
4 Dance Magic Feb 15, 2016 $2.49N/A (N/A)0 .. 20,0000%00:00 (00:00)
5 Broken Dreams Feb 19, 2016 $0.49N/A (N/A)100,000 .. 200,0000%00:00 (00:00)
6 12 Labours of Hercules IV: Mother Nature (Platinum Edition) Dec 25, 2015 $2.09N/A (N/A)20,000 .. 50,0000%00:00 (00:00)
7 RePete Nov 1, 2015 $1.99N/A (N/A)0 .. 20,0000%00:00 (00:00)
8 Without Within 2 Nov 9, 2015 $2.49N/A (N/A)0 .. 20,0000%00:00 (00:00)
9 Hustle Cat Mar 16, 2016 $3.99N/A (N/A)50,000 .. 100,0000%00:00 (00:00)
10 Anode Oct 5, 2015 $1.59N/A (N/A)20,000 .. 50,0000%00:00 (00:00)
11 Burst Mar 14, 2016 N/AN/A (N/A)50,000 .. 100,0000%00:00 (00:00)
12 Star Sky - ブルームーン Oct 23, 2015 $1.59N/A (N/A)0 .. 20,0000%00:00 (00:00)
13 In Between Aug 21, 2015 $4.79N/A (N/A/68%)50,000 .. 100,0000%00:00 (00:00)
14 The Last NightMary - A Lenda do Cabeça de Cuia Nov 2, 2015 $0.51N/A (N/A)50,000 .. 100,0000%00:00 (00:00)
15 Robot vs Birds Zombies Jun 1, 2013 $0.99N/A (N/A)500,000 .. 1,000,0000%00:00 (00:00)
16 Herding Dog Dec 25, 2015 $1.99N/A (N/A)0 .. 20,0000%00:00 (00:00)
17 Collisions Jul 28, 2015 $1.99N/A (N/A)20,000 .. 50,0000%00:00 (00:00)
18 Clock Simulator Jul 20, 2016 $0.49N/A (N/A)20,000 .. 50,0000%00:00 (00:00)
19 One Last Chance Apr 7, 2016 $1.99N/A (N/A)0 .. 20,0000%00:00 (00:00)
20 Carrie's Order Up! Sep 13, 2016 $2.99N/A (N/A)0 .. 20,0000%00:00 (00:00)
21 Hyposphere May 5, 2016 $0.5N/A (N/A)50,000 .. 100,0000%00:00 (00:00)
22 Turbo Pug 3D Sep 20, 2016 $0.99N/A (N/A)200,000 .. 500,0000%00:00 (00:00)
23 King's Guard TD Jun 8, 2016 $0.89N/A (N/A)100,000 .. 200,0000%00:00 (00:00)
24 Archimedes Oct 6, 2016 $2.99N/A (N/A)20,000 .. 50,0000%00:00 (00:00)
25 Magma Tsunami Jun 1, 2016 $0.99N/A (N/A)200,000 .. 500,0000%00:00 (00:00)
26 GO AWAY, THERE'S KUMIS OVER THERE! Oct 28, 2016 $0.99N/A (N/A)50,000 .. 100,0000%00:00 (00:00)
27 Color Syndrome Jun 20, 2016 $0.99N/A (N/A)50,000 .. 100,0000%00:00 (00:00)
28 The Survey Oct 27, 2016 $0.99N/A (N/A)0 .. 20,0000%00:00 (00:00)
29 Hide and Secret Treasure of the Ages Mar 15, 2007 $1.94N/A (N/A)20,000 .. 50,0000%00:00 (00:00)
30 [the Sequence] Mar 30, 2016 $1.79N/A (N/A)0 .. 20,0000%00:00 (00:00)
31 Beeftacular Aug 26, 2016 $0.59N/A (N/A)0 .. 20,0000%00:00 (00:00)
32 Forgotten, Not Lost - A Kinetic Novel Apr 2, 2016 $1.99N/A (N/A)20,000 .. 50,0000%00:00 (00:00)
33 ConflictCraft Dec 8, 2016 $1.49N/A (N/A)20,000 .. 50,00020%04:36 (01:32)
34 Love in the Glen Jun 9, 2016 $2.99N/A (N/A)20,000 .. 50,0000%00:00 (00:00)
35 Ninja Stealth 2 Jan 30, 2017 $0.49N/A (N/A)20,000 .. 50,0000%00:00 (00:00)
36 Dungeon Painter Studio Feb 26, 2017 $14.99N/A (N/A)20,000 .. 50,0000%00:00 (00:00)
37 Neon Prism Nov 18, 2016 $4.99N/A (N/A)50,000 .. 100,0000%00:00 (00:00)
38 iREC Jan 16, 2017 FreeN/A (N/A)50,000 .. 100,0000%00:00 (00:00)
39 Winexy Jan 13, 2017 $0.49N/A (N/A)20,000 .. 50,0000%00:00 (00:00)
40 Oozi: Earth Adventure Dec 5, 2013 $1.99N/A (N/A/66%)50,000 .. 100,0000%00:00 (00:00)
41 Sinister City Oct 18, 2014 $0.49N/A (N/A)100,000 .. 200,0000%00:00 (00:00)
42 Particulars Nov 19, 2014 $5.99N/A (N/A/74%)20,000 .. 50,0000%00:00 (00:00)
43 The Jackbox Party Pack Nov 26, 2014 $12.49N/A (N/A)200,000 .. 500,0000%00:00 (00:00)
44 Girls Like Robots Feb 14, 2014 $5.59N/A (N/A)100,000 .. 200,0000%00:00 (00:00)
45 1931: Scheherazade at the Library of Pergamum Mar 26, 2015 $3.74N/A (N/A)0 .. 20,0000%00:00 (00:00)
46 Farm for your Life Jun 5, 2013 $3.99N/A (N/A)0 .. 20,0000%00:00 (00:00)
47 12 Labours of Hercules Mar 23, 2015 $2.09N/A (N/A)200,000 .. 500,0000%00:00 (00:00)
48 Grapple Mar 9, 2015 $0.69N/A (N/A)20,000 .. 50,0000%00:00 (00:00)
49 Bob Was Hungry Aug 19, 2015 $0.99N/A (N/A)50,000 .. 100,0000%00:00 (00:00)
50 Paranormal State: Poison Spring Nov 26, 2013 $9.99N/A (N/A)50,000 .. 100,0000%00:00 (00:00)
51 Pixel Puzzles 2: Birds Feb 20, 2015 $2.99N/A (N/A)200,000 .. 500,0000%00:00 (00:00)
52 Tribloos 2 Jan 12, 2013 $4.99N/A (N/A)50,000 .. 100,0000%00:00 (00:00)
53 Thrillville: Off the Rails Jul 8, 2009 $3.49N/A (N/A/70%)20,000 .. 50,0000%00:00 (00:00)
54 Bloop Reloaded Feb 6, 2015 FreeN/A (N/A)100,000 .. 200,0006.67%00:03 (00:01)
55 Luxor Evolved Mar 1, 2012 $4.99N/A (N/A)50,000 .. 100,0000%00:00 (00:00)
56 Quantum Rush Champions Dec 4, 2014 $2.99N/A (N/A)20,000 .. 50,0000%00:00 (00:00)
57 Star Chronicles: Delta Quadrant Jul 7, 2015 $0.49N/A (N/A)200,000 .. 500,0000%00:00 (00:00)
58 Pester Jan 25, 2013 $0.49N/A (N/A)100,000 .. 200,0000%00:00 (00:00)
59 Job the Leprechaun Jul 31, 2015 $2.99N/A (N/A)20,000 .. 50,0000%00:00 (00:00)
60 Earthtongue Apr 27, 2015 $4.99N/A (N/A)50,000 .. 100,0000%00:00 (00:00)
61 Wanda - A Beautiful Apocalypse Jun 3, 2016 $1.99N/A (N/A)50,000 .. 100,0000%00:00 (00:00)
62 The Reject Demon: Toko Chapter 0 — Prelude May 9, 2015 $1.49N/A (N/A)20,000 .. 50,0000%00:00 (00:00)
63 Sentinel 4: Dark Star Aug 13, 2015 $6.99N/A (N/A)0 .. 20,0000%00:00 (00:00)
64 Cursed Sight Aug 3, 2015 $2.49N/A (N/A)0 .. 20,0000%00:00 (00:00)
65 Asphyxia Aug 4, 2015 $2.99N/A (N/A)20,000 .. 50,0000%00:00 (00:00)
66 Egg Returns Home May 5, 2015 $0.99N/A (N/A)20,000 .. 50,0000%00:00 (00:00)
67 Alpha Runner Sep 2, 2015 $0.99N/A (N/A)100,000 .. 200,0000%00:00 (00:00)
68 Power of Love Jul 21, 2015 $0.49N/A (N/A)20,000 .. 50,0000%00:00 (00:00)
69 Stay Alight Mar 2, 2015 $3.99N/A (N/A)50,000 .. 100,0000%00:00 (00:00)
70 Way of Gold and Steel Aug 17, 2015 $1.97N/A (N/A)20,000 .. 50,0000%00:00 (00:00)
71 Streets of Chaos Jan 23, 2015 N/AN/A (N/A)100,000 .. 200,0000%00:00 (00:00)
72 Koala Kids Jun 22, 2015 $0.67N/A (N/A)20,000 .. 50,0000%00:00 (00:00)
73 Terraform May 8, 2015 $2.99N/A (N/A)0 .. 20,0000%00:00 (00:00)

Tags over time:

Access restricted.

This feature is only available to users with special access rights. Sorry.

If you want to proceed, you need to register or log in first and then back Steam Spy on Patreon. Look for Indie or Pro pledge.

Don't forget to use the same email as on Steam Spy!

Owners of this game also own:

Access restricted.

This feature is only available to users with special access rights. Sorry.

If you want to proceed, you need to register or log in first and then back Steam Spy on Patreon. Look for Indie or Pro pledge.

Don't forget to use the same email as on Steam Spy!

Playtime distribution:

Access restricted.

This feature is only available to users with special access rights. Sorry.

If you want to proceed, you need to register or log in first and then back Steam Spy on Patreon. Look for Indie or Pro pledge.

Don't forget to use the same email as on Steam Spy!

Playtime (2 weeks):

Access restricted.

This feature is only available to users with special access rights. Sorry.

If you want to proceed, you need to register or log in first and then back Steam Spy on Patreon. Look for Indie or Pro pledge.

Don't forget to use the same email as on Steam Spy!

User reviews:

Login required.

Please register or log in to see this information.